createdAt,value
2018-09-30T00:00:26.300Z,9.03
2018-09-30T00:02:54.406Z,9.01
2018-09-30T00:05:22.623Z,8.99
2018-09-30T00:07:50.830Z,8.96
2018-09-30T00:10:18.787Z,8.95
2018-09-30T00:12:46.873Z,8.93
2018-09-30T00:15:14.936Z,8.92
2018-09-30T00:17:43.012Z,8.90
2018-09-30T00:20:11.076Z,8.89
2018-09-30T00:22:39.148Z,8.87
2018-09-30T00:25:12.636Z,8.84
2018-09-30T00:27:40.715Z,8.80
2018-09-30T00:30:08.852Z,8.77
2018-09-30T00:32:36.917Z,8.77
2018-09-30T00:35:04.989Z,8.76
2018-09-30T00:37:33.058Z,8.76
2018-09-30T00:40:01.133Z,8.74
2018-09-30T00:42:29.197Z,8.69
2018-09-30T00:44:57.376Z,8.67
2018-09-30T00:47:25.441Z,8.65
2018-09-30T00:49:53.516Z,8.59
2018-09-30T00:52:21.591Z,8.54
2018-09-30T00:54:49.672Z,8.51
2018-09-30T00:57:17.740Z,8.48
2018-09-30T00:59:45.820Z,8.44
2018-09-30T01:02:13.992Z,8.40
2018-09-30T01:04:42.081Z,8.37
2018-09-30T01:07:10.144Z,8.34
2018-09-30T01:09:38.217Z,8.32
2018-09-30T01:12:06.296Z,8.33
2018-09-30T01:14:34.383Z,8.31
2018-09-30T01:17:02.449Z,8.29
2018-09-30T01:19:30.551Z,8.29
2018-09-30T01:21:58.612Z,8.27
2018-09-30T01:24:26.686Z,8.26
2018-09-30T01:26:54.748Z,8.26
2018-09-30T01:29:22.819Z,8.24
2018-09-30T01:31:50.885Z,8.22
2018-09-30T01:34:18.964Z,8.19
2018-09-30T01:36:47.118Z,8.16
2018-09-30T01:39:15.197Z,8.12
2018-09-30T01:41:43.361Z,8.09
2018-09-30T01:44:11.425Z,8.08
2018-09-30T01:46:39.673Z,8.04
2018-09-30T01:49:07.739Z,8.04
2018-09-30T01:51:35.814Z,8.01
2018-09-30T01:54:03.879Z,7.99
2018-09-30T01:56:31.994Z,7.96
2018-09-30T01:59:00.229Z,7.95
2018-09-30T02:01:28.304Z,7.94
2018-09-30T02:03:56.381Z,7.90
2018-09-30T02:06:24.470Z,7.86
2018-09-30T02:08:52.536Z,7.84
2018-09-30T02:11:20.615Z,7.81
2018-09-30T02:13:48.681Z,7.81
2018-09-30T02:16:16.972Z,7.81
2018-09-30T02:18:45.037Z,7.79
2018-09-30T02:21:13.107Z,7.80
2018-09-30T02:23:41.204Z,7.79
2018-09-30T02:26:09.280Z,7.77
2018-09-30T02:28:37.354Z,7.75
2018-09-30T02:31:05.430Z,7.75
2018-09-30T02:33:33.501Z,7.75
2018-09-30T02:36:01.577Z,7.75
2018-09-30T02:38:29.746Z,7.74
2018-09-30T02:40:57.826Z,7.73
2018-09-30T02:43:25.899Z,7.72
2018-09-30T02:45:53.999Z,7.70
2018-09-30T02:48:22.063Z,7.68
2018-09-30T02:50:50.139Z,7.66
2018-09-30T02:53:18.209Z,7.65
2018-09-30T02:55:46.284Z,7.64
2018-09-30T02:58:14.431Z,7.62
2018-09-30T03:00:42.592Z,7.58
2018-09-30T03:03:10.670Z,7.54
2018-09-30T03:05:38.745Z,7.50
2018-09-30T03:08:12.305Z,7.50
2018-09-30T03:10:40.381Z,7.47
2018-09-30T03:13:08.504Z,7.43
2018-09-30T03:15:36.560Z,7.43
2018-09-30T03:18:04.642Z,7.45
2018-09-30T03:20:32.709Z,7.43
2018-09-30T03:23:00.910Z,7.39
2018-09-30T03:25:29.190Z,7.43
2018-09-30T03:27:57.272Z,7.39
2018-09-30T03:30:25.341Z,7.39
2018-09-30T03:32:53.445Z,7.42
2018-09-30T03:35:21.509Z,7.39
2018-09-30T03:37:49.638Z,7.44
2018-09-30T03:40:17.866Z,7.46
2018-09-30T03:42:46.012Z,7.38
2018-09-30T03:45:14.087Z,7.36
2018-09-30T03:47:42.197Z,7.36
2018-09-30T03:50:10.273Z,7.34
2018-09-30T03:52:38.364Z,7.35
2018-09-30T03:55:06.596Z,7.36
2018-09-30T03:57:34.666Z,7.40
2018-09-30T04:00:02.954Z,7.38
2018-09-30T04:02:31.068Z,7.38
2018-09-30T04:04:59.302Z,7.35
2018-09-30T04:07:27.384Z,7.34
2018-09-30T04:09:55.466Z,7.33
2018-09-30T04:12:23.567Z,7.33
2018-09-30T04:14:51.797Z,7.32
2018-09-30T04:17:19.867Z,7.32
2018-09-30T04:19:47.943Z,7.31
2018-09-30T04:22:16.010Z,7.36
2018-09-30T04:24:44.098Z,7.37
2018-09-30T04:27:12.157Z,7.39
2018-09-30T04:29:40.237Z,7.33
2018-09-30T04:32:08.308Z,7.36
2018-09-30T04:34:36.433Z,7.38
2018-09-30T04:37:04.517Z,7.32
2018-09-30T04:39:32.597Z,7.25
2018-09-30T04:42:00.737Z,7.21
2018-09-30T04:44:28.817Z,7.24
2018-09-30T04:46:56.989Z,7.20
2018-09-30T04:49:25.070Z,7.14
2018-09-30T04:51:53.136Z,7.13
2018-09-30T04:54:21.220Z,7.09
2018-09-30T04:56:49.298Z,7.07
2018-09-30T04:59:17.402Z,7.05
2018-09-30T05:01:45.479Z,7.03
2018-09-30T05:04:13.552Z,7.00
2018-09-30T05:06:41.629Z,7.00
2018-09-30T05:09:10.098Z,7.00
2018-09-30T05:11:38.290Z,6.99
2018-09-30T05:14:06.352Z,6.99
2018-09-30T05:16:34.471Z,6.97
2018-09-30T05:19:02.498Z,6.96
2018-09-30T05:21:30.609Z,6.98
2018-09-30T05:23:58.689Z,6.98
2018-09-30T05:26:26.772Z,6.97
2018-09-30T05:28:54.836Z,6.95
2018-09-30T05:31:23.078Z,6.92
2018-09-30T05:33:51.092Z,6.93
2018-09-30T05:36:19.274Z,6.91
2018-09-30T05:38:47.445Z,6.89
2018-09-30T05:41:15.689Z,6.89
2018-09-30T05:43:43.821Z,6.94
2018-09-30T05:46:11.906Z,6.92
2018-09-30T05:48:40.025Z,6.92
2018-09-30T05:51:08.220Z,6.93
2018-09-30T05:53:36.293Z,6.94
2018-09-30T05:56:04.455Z,6.96
2018-09-30T05:58:32.528Z,6.98
2018-09-30T06:01:00.597Z,7.01
2018-09-30T06:03:28.675Z,7.00
2018-09-30T06:05:56.811Z,7.02
2018-09-30T06:08:24.920Z,7.05
2018-09-30T06:10:53.012Z,7.12
2018-09-30T06:13:21.129Z,7.17
2018-09-30T06:15:49.214Z,7.29
2018-09-30T06:18:17.272Z,7.45
2018-09-30T06:20:45.601Z,7.60
2018-09-30T06:23:13.683Z,7.71
2018-09-30T06:25:41.773Z,7.79
2018-09-30T06:28:09.848Z,7.79
2018-09-30T06:30:37.973Z,7.81
2018-09-30T06:33:06.425Z,7.76
2018-09-30T06:35:34.490Z,7.71
2018-09-30T06:38:02.610Z,7.65
2018-09-30T06:40:30.877Z,7.50
2018-09-30T06:42:58.992Z,7.43
2018-09-30T06:45:27.395Z,7.37
2018-09-30T06:47:55.506Z,7.26
2018-09-30T06:50:23.694Z,7.27
2018-09-30T06:52:52.009Z,7.31
2018-09-30T06:55:20.105Z,7.36
2018-09-30T06:57:48.199Z,7.42
2018-09-30T07:00:16.286Z,7.48
2018-09-30T07:02:44.385Z,7.56
2018-09-30T07:05:12.474Z,7.58
2018-09-30T07:07:40.557Z,7.60
2018-09-30T07:10:08.667Z,7.68
2018-09-30T07:12:36.741Z,7.75
2018-09-30T07:15:04.860Z,7.84
2018-09-30T07:17:32.996Z,7.91
2018-09-30T07:20:01.182Z,8.00
2018-09-30T07:22:29.403Z,8.08
2018-09-30T07:24:57.556Z,8.14
2018-09-30T07:27:25.690Z,8.19
2018-09-30T07:29:53.797Z,8.24
2018-09-30T07:32:21.876Z,8.30
2018-09-30T07:34:50.069Z,8.38
2018-09-30T07:37:18.139Z,8.43
2018-09-30T07:39:46.213Z,8.51
2018-09-30T07:42:14.285Z,8.55
2018-09-30T07:44:42.562Z,8.61
2018-09-30T07:47:10.662Z,8.67
2018-09-30T07:49:38.755Z,8.74
2018-09-30T07:52:06.828Z,8.84
2018-09-30T07:54:34.907Z,8.98
2018-09-30T07:57:02.971Z,9.02
2018-09-30T07:59:31.045Z,9.14
2018-09-30T08:01:59.125Z,9.25
2018-09-30T08:04:27.208Z,9.28
2018-09-30T08:06:55.401Z,9.25
2018-09-30T08:09:23.471Z,9.58
2018-09-30T08:11:51.536Z,9.57
2018-09-30T08:14:19.625Z,9.70
2018-09-30T08:16:47.743Z,9.71
2018-09-30T08:19:15.777Z,9.81
2018-09-30T08:21:44.376Z,9.87
2018-09-30T08:24:12.528Z,9.95
2018-09-30T08:26:40.526Z,10.12
2018-09-30T08:29:08.605Z,10.21
2018-09-30T08:31:36.685Z,10.23
2018-09-30T08:34:05.000Z,10.34
2018-09-30T08:36:33.162Z,10.40
2018-09-30T08:39:01.239Z,10.48
2018-09-30T08:41:29.328Z,10.63
2018-09-30T08:43:57.451Z,10.75
2018-09-30T08:46:25.556Z,10.81
2018-09-30T08:48:53.640Z,10.90
2018-09-30T08:51:21.734Z,11.04
2018-09-30T08:53:49.801Z,11.12
2018-09-30T08:56:17.924Z,11.21
2018-09-30T08:58:45.963Z,11.31
2018-09-30T09:01:14.039Z,11.46
2018-09-30T09:03:42.111Z,11.58
2018-09-30T09:06:10.215Z,11.59
2018-09-30T09:08:38.301Z,11.69
2018-09-30T09:11:06.402Z,11.87
2018-09-30T09:13:34.481Z,12.07
2018-09-30T09:16:02.560Z,12.21
2018-09-30T09:18:30.659Z,12.18
2018-09-30T09:20:58.821Z,12.22
2018-09-30T09:23:26.830Z,12.45
2018-09-30T09:25:54.903Z,12.49
2018-09-30T09:28:22.991Z,12.59
2018-09-30T09:30:51.065Z,12.64
2018-09-30T09:33:19.157Z,12.75
2018-09-30T09:35:47.230Z,12.80
2018-09-30T09:38:15.313Z,12.88
2018-09-30T09:40:43.393Z,12.98
2018-09-30T09:43:11.468Z,13.10
2018-09-30T09:45:39.541Z,13.17
2018-09-30T09:48:07.626Z,13.20
2018-09-30T09:50:35.695Z,13.36
2018-09-30T09:53:03.783Z,13.40
2018-09-30T09:55:31.858Z,13.49
2018-09-30T09:57:59.941Z,13.60
2018-09-30T10:00:30.894Z,13.69
2018-09-30T10:02:59.129Z,13.79
2018-09-30T10:05:27.214Z,13.89
2018-09-30T10:07:55.308Z,13.93
2018-09-30T10:10:23.369Z,14.08
2018-09-30T10:12:51.444Z,14.33
2018-09-30T10:15:19.690Z,14.19
2018-09-30T10:17:47.832Z,14.30
2018-09-30T10:20:15.913Z,14.30
2018-09-30T10:22:44.166Z,14.39
2018-09-30T10:25:12.254Z,14.60
2018-09-30T10:27:40.341Z,14.68
2018-09-30T10:30:08.438Z,14.67
2018-09-30T10:32:36.521Z,14.78
2018-09-30T10:35:04.633Z,14.80
2018-09-30T10:37:32.701Z,14.85
2018-09-30T10:40:00.856Z,15.06
2018-09-30T10:42:29.097Z,15.14
2018-09-30T10:44:57.225Z,15.24
2018-09-30T10:47:25.318Z,15.25
2018-09-30T10:49:53.528Z,15.30
2018-09-30T10:52:21.593Z,15.34
2018-09-30T10:54:49.691Z,15.42
2018-09-30T10:57:17.765Z,15.55
2018-09-30T10:59:45.861Z,15.62
2018-09-30T11:02:13.931Z,15.68
2018-09-30T11:04:42.025Z,15.77
2018-09-30T11:07:10.092Z,15.92
2018-09-30T11:09:38.198Z,15.96
2018-09-30T11:12:06.446Z,16.17
2018-09-30T11:14:34.529Z,16.12
2018-09-30T11:17:02.700Z,16.22
2018-09-30T11:19:30.781Z,16.28
2018-09-30T11:21:58.866Z,16.38
2018-09-30T11:24:27.018Z,16.42
2018-09-30T11:26:55.219Z,16.55
2018-09-30T11:29:23.318Z,16.67
2018-09-30T11:31:51.412Z,16.74
2018-09-30T11:34:19.456Z,16.74
2018-09-30T11:36:47.536Z,16.92
2018-09-30T11:39:15.609Z,17.02
2018-09-30T11:41:44.179Z,16.95
2018-09-30T11:44:13.001Z,17.00
2018-09-30T11:46:41.552Z,17.08
2018-09-30T11:49:10.125Z,17.27
2018-09-30T11:51:38.208Z,17.32
2018-09-30T11:54:06.276Z,17.37
2018-09-30T11:56:34.783Z,17.46
2018-09-30T11:59:02.853Z,17.53
2018-09-30T12:01:30.951Z,17.61
2018-09-30T12:03:59.272Z,17.64
2018-09-30T12:06:27.438Z,17.73
2018-09-30T12:08:55.513Z,17.77
2018-09-30T12:11:23.600Z,17.92
2018-09-30T12:13:51.674Z,17.92
2018-09-30T12:16:19.789Z,17.98
2018-09-30T12:18:47.980Z,18.03
2018-09-30T12:21:16.198Z,18.16
2018-09-30T12:23:45.256Z,18.21
2018-09-30T12:26:13.340Z,18.27
2018-09-30T12:28:41.532Z,18.32
2018-09-30T12:31:09.647Z,18.35
2018-09-30T12:33:37.726Z,18.40
2018-09-30T12:36:05.811Z,18.46
2018-09-30T12:38:33.986Z,18.54
2018-09-30T12:41:02.061Z,18.59
2018-09-30T12:43:30.149Z,18.65
2018-09-30T12:45:58.224Z,18.71
2018-09-30T12:48:26.311Z,18.79
2018-09-30T12:50:54.386Z,18.84
2018-09-30T12:53:22.474Z,18.88
2018-09-30T12:55:50.546Z,18.95
2018-09-30T12:58:18.652Z,19.02
2018-09-30T13:00:46.725Z,19.04
2018-09-30T13:03:14.809Z,19.06
2018-09-30T13:05:42.923Z,19.12
2018-09-30T13:08:11.065Z,19.14
2018-09-30T13:10:39.169Z,19.19
2018-09-30T13:13:07.257Z,19.21
2018-09-30T13:15:35.333Z,19.24
2018-09-30T13:18:03.456Z,19.31
2018-09-30T13:20:31.560Z,19.30
2018-09-30T13:22:59.657Z,19.33
2018-09-30T13:25:27.736Z,19.39
2018-09-30T13:27:55.828Z,19.48
2018-09-30T13:30:23.937Z,19.48
2018-09-30T13:32:52.253Z,19.52
2018-09-30T13:35:20.325Z,19.56
2018-09-30T13:37:48.398Z,19.58
2018-09-30T13:40:16.694Z,19.59
2018-09-30T13:42:44.570Z,19.61
2018-09-30T13:45:12.668Z,19.63
2018-09-30T13:47:40.734Z,19.70
2018-09-30T13:50:08.819Z,19.70
2018-09-30T13:52:36.892Z,19.74
2018-09-30T13:55:04.974Z,19.77
2018-09-30T13:57:33.049Z,19.80
2018-09-30T14:00:01.137Z,19.81
2018-09-30T14:02:29.223Z,19.84
2018-09-30T14:04:57.328Z,19.88
2018-09-30T14:07:25.401Z,19.90
2018-09-30T14:09:53.493Z,19.91
2018-09-30T14:12:21.571Z,19.93
2018-09-30T14:14:49.657Z,19.94
2018-09-30T14:17:17.815Z,19.97
2018-09-30T14:19:45.869Z,19.96
2018-09-30T14:22:13.938Z,19.98
2018-09-30T14:24:42.030Z,20.00
2018-09-30T14:27:10.237Z,20.01
2018-09-30T14:29:38.373Z,20.09
2018-09-30T14:32:06.490Z,20.10
2018-09-30T14:34:34.562Z,20.14
2018-09-30T14:37:02.646Z,20.14
2018-09-30T14:39:30.723Z,20.22
2018-09-30T14:41:58.840Z,20.18
2018-09-30T14:44:26.887Z,20.19
2018-09-30T14:46:54.974Z,20.24
2018-09-30T14:49:26.830Z,20.20
2018-09-30T14:51:54.874Z,20.22
2018-09-30T14:54:22.993Z,20.16
2018-09-30T14:56:51.213Z,20.20
2018-09-30T14:59:19.313Z,20.19
2018-09-30T15:01:47.405Z,20.18
2018-09-30T15:04:15.492Z,20.17
2018-09-30T15:06:43.588Z,20.15
2018-09-30T15:09:12.291Z,20.14
2018-09-30T15:11:40.685Z,20.10
2018-09-30T15:14:08.766Z,20.12
2018-09-30T15:16:36.880Z,20.07
2018-09-30T15:19:04.952Z,20.05
2018-09-30T15:21:33.284Z,20.03
2018-09-30T15:24:01.482Z,20.03
2018-09-30T15:26:29.663Z,20.00
2018-09-30T15:28:57.750Z,19.96
2018-09-30T15:31:25.857Z,19.95
2018-09-30T15:33:54.465Z,19.93
2018-09-30T15:36:22.537Z,19.90
2018-09-30T15:38:50.623Z,19.88
2018-09-30T15:41:18.698Z,19.83
2018-09-30T15:43:46.781Z,19.82
2018-09-30T15:46:14.862Z,19.77
2018-09-30T15:48:42.985Z,19.57
2018-09-30T15:51:11.021Z,19.65
2018-09-30T15:53:39.148Z,19.59
2018-09-30T15:56:07.405Z,19.53
2018-09-30T15:58:35.497Z,19.46
2018-09-30T16:01:03.575Z,19.38
2018-09-30T16:03:31.663Z,19.30
2018-09-30T16:05:59.769Z,19.23
2018-09-30T16:08:28.240Z,19.15
2018-09-30T16:10:56.599Z,19.07
2018-09-30T16:13:24.399Z,19.00
2018-09-30T16:15:52.471Z,18.92
2018-09-30T16:18:20.649Z,18.85
2018-09-30T16:20:51.861Z,18.75
2018-09-30T16:23:20.128Z,18.64
2018-09-30T16:25:48.213Z,18.51
2018-09-30T16:28:16.454Z,18.41
2018-09-30T16:30:44.979Z,18.32
2018-09-30T16:33:13.018Z,18.23
2018-09-30T16:35:41.384Z,18.15
2018-09-30T16:38:09.532Z,18.06
2018-09-30T16:40:37.643Z,17.97
2018-09-30T16:43:05.787Z,17.86
2018-09-30T16:45:33.870Z,17.77
2018-09-30T16:48:01.996Z,17.69
2018-09-30T16:50:30.119Z,17.63
2018-09-30T16:52:58.161Z,17.54
2018-09-30T16:55:26.243Z,17.45
2018-09-30T16:57:54.390Z,17.37
2018-09-30T17:00:22.473Z,17.30
2018-09-30T17:02:50.552Z,17.23
2018-09-30T17:05:18.641Z,17.14
2018-09-30T17:07:46.719Z,17.07
2018-09-30T17:10:14.856Z,17.01
2018-09-30T17:12:42.886Z,16.93
2018-09-30T17:15:10.965Z,16.85
2018-09-30T17:17:39.045Z,16.75
2018-09-30T17:20:07.166Z,16.68
2018-09-30T17:22:35.242Z,16.60
2018-09-30T17:25:06.527Z,16.52
2018-09-30T17:27:34.636Z,16.45
2018-09-30T17:30:02.716Z,16.37
2018-09-30T17:32:30.798Z,16.31
2018-09-30T17:34:58.875Z,16.25
2018-09-30T17:37:27.037Z,16.20
2018-09-30T17:39:55.365Z,16.13
2018-09-30T17:42:23.433Z,16.06
2018-09-30T17:44:51.529Z,15.99
2018-09-30T17:47:23.489Z,15.92
2018-09-30T17:49:51.585Z,15.86
2018-09-30T17:52:19.696Z,15.79
2018-09-30T17:54:47.856Z,15.74
2018-09-30T17:57:16.019Z,15.69
2018-09-30T17:59:44.099Z,15.62
2018-09-30T18:02:12.189Z,15.57
2018-09-30T18:04:40.368Z,15.50
2018-09-30T18:07:08.417Z,15.44
2018-09-30T18:09:36.574Z,15.40
2018-09-30T18:12:04.663Z,15.35
2018-09-30T18:14:33.749Z,15.29
2018-09-30T18:17:01.959Z,15.24
2018-09-30T18:19:29.993Z,15.19
2018-09-30T18:24:26.345Z,15.10
2018-09-30T18:26:54.435Z,14.94
2018-09-30T18:29:22.509Z,15.00
2018-09-30T18:31:50.676Z,14.93
2018-09-30T18:34:18.751Z,14.86
2018-09-30T18:36:46.834Z,14.79
2018-09-30T18:39:15.006Z,14.75
2018-09-30T18:41:43.217Z,14.70
2018-09-30T18:44:11.344Z,14.66
2018-09-30T18:46:39.384Z,14.61
2018-09-30T18:49:07.571Z,14.55
2018-09-30T18:51:35.687Z,14.51
2018-09-30T18:54:04.073Z,14.47
2018-09-30T18:56:32.392Z,14.43
2018-09-30T18:59:00.727Z,14.39
2018-09-30T19:01:29.060Z,14.34
2018-09-30T19:03:57.289Z,14.29
2018-09-30T19:06:25.631Z,14.24
2018-09-30T19:08:54.037Z,14.22
2018-09-30T19:11:22.119Z,14.19
2018-09-30T19:13:50.390Z,14.17
2018-09-30T19:16:18.637Z,14.13
2018-09-30T19:18:46.724Z,14.09
2018-09-30T19:21:14.817Z,14.04
2018-09-30T19:23:42.910Z,14.01
2018-09-30T19:26:11.022Z,13.94
2018-09-30T19:28:39.335Z,13.88
2018-09-30T19:31:07.609Z,13.82
2018-09-30T19:33:35.721Z,13.80
2018-09-30T19:36:04.222Z,13.77
2018-09-30T19:38:32.429Z,13.74
2018-09-30T19:41:00.585Z,13.73
2018-09-30T19:43:28.696Z,13.70
2018-09-30T19:45:56.878Z,13.68
2018-09-30T19:48:25.003Z,13.67
2018-09-30T19:50:53.075Z,13.64
2018-09-30T19:53:21.169Z,13.61
2018-09-30T19:55:49.345Z,13.58
2018-09-30T19:58:17.428Z,13.52
2018-09-30T20:00:45.512Z,13.48
2018-09-30T20:03:13.596Z,13.48
2018-09-30T20:05:41.913Z,13.50
2018-09-30T20:08:09.998Z,13.55
2018-09-30T20:10:38.145Z,13.62
2018-09-30T20:13:06.501Z,13.69
2018-09-30T20:15:34.587Z,13.72
2018-09-30T20:18:02.676Z,13.75
2018-09-30T20:20:30.778Z,13.77
2018-09-30T20:22:58.853Z,13.76
2018-09-30T20:25:26.946Z,13.74
2018-09-30T20:27:55.026Z,13.72
2018-09-30T20:30:23.118Z,13.71
2018-09-30T20:32:51.216Z,13.70
2018-09-30T20:35:19.303Z,13.70
2018-09-30T20:37:47.454Z,13.71
2018-09-30T20:40:15.539Z,13.69
2018-09-30T20:42:43.631Z,13.68
2018-09-30T20:45:11.706Z,13.67
2018-09-30T20:47:39.836Z,13.66
2018-09-30T20:50:07.991Z,13.67
2018-09-30T20:52:36.086Z,13.65
2018-09-30T20:55:04.193Z,13.67
2018-09-30T20:57:32.485Z,13.73
2018-09-30T21:00:00.590Z,13.80
2018-09-30T21:02:28.674Z,13.85
2018-09-30T21:04:56.983Z,13.92
2018-09-30T21:07:25.011Z,13.95
2018-09-30T21:09:53.571Z,14.01
2018-09-30T21:12:21.668Z,14.06
2018-09-30T21:14:49.742Z,14.11
2018-09-30T21:17:17.825Z,14.14
2018-09-30T21:19:46.035Z,14.18
2018-09-30T21:22:14.115Z,14.21
2018-09-30T21:24:42.186Z,14.24
2018-09-30T21:27:10.272Z,14.27
2018-09-30T21:29:38.342Z,14.29
2018-09-30T21:32:06.675Z,14.32
2018-09-30T21:34:34.739Z,14.34
2018-09-30T21:37:02.818Z,14.37
2018-09-30T21:39:30.901Z,14.37
2018-09-30T21:41:58.997Z,14.38
2018-09-30T21:44:27.081Z,14.41
2018-09-30T21:46:55.164Z,14.43
2018-09-30T21:49:23.248Z,14.45
2018-09-30T21:51:51.389Z,14.46
2018-09-30T21:54:19.473Z,14.46
2018-09-30T21:56:47.544Z,14.48
2018-09-30T21:59:15.622Z,14.47
2018-09-30T22:01:43.743Z,14.48
2018-09-30T22:04:11.858Z,14.48
2018-09-30T22:06:39.954Z,14.47
2018-09-30T22:09:08.055Z,14.47
2018-09-30T22:11:36.127Z,14.47
2018-09-30T22:14:04.227Z,14.46
2018-09-30T22:16:32.298Z,14.46
2018-09-30T22:19:04.393Z,14.45
2018-09-30T22:21:32.475Z,14.42
2018-09-30T22:24:00.549Z,14.33
2018-09-30T22:26:28.628Z,14.24
2018-09-30T22:28:56.699Z,14.13
2018-09-30T22:31:24.782Z,14.01
2018-09-30T22:33:52.858Z,13.93
2018-09-30T22:36:20.947Z,13.81
2018-09-30T22:38:49.143Z,13.70
2018-09-30T22:41:17.261Z,13.58
2018-09-30T22:43:45.307Z,13.50
2018-09-30T22:46:13.450Z,13.43
2018-09-30T22:48:41.524Z,13.35
2018-09-30T22:51:09.661Z,13.28
2018-09-30T22:53:37.791Z,13.21
2018-09-30T22:56:05.837Z,13.16
2018-09-30T22:58:33.907Z,13.10
2018-09-30T23:01:02.033Z,13.05
2018-09-30T23:03:30.104Z,12.99
2018-09-30T23:05:58.233Z,12.93
2018-09-30T23:08:26.268Z,12.89
2018-09-30T23:10:54.350Z,12.83
2018-09-30T23:13:22.424Z,12.80
2018-09-30T23:15:50.519Z,12.75
2018-09-30T23:18:18.617Z,12.73
2018-09-30T23:20:46.717Z,12.68
2018-09-30T23:23:14.802Z,12.65
2018-09-30T23:25:42.880Z,12.59
2018-09-30T23:28:10.960Z,12.59
2018-09-30T23:30:39.033Z,12.56
2018-09-30T23:33:07.174Z,12.53
2018-09-30T23:35:35.251Z,12.49
2018-09-30T23:38:03.343Z,12.46
2018-09-30T23:40:31.422Z,12.43
2018-09-30T23:42:59.530Z,12.38
2018-09-30T23:45:27.602Z,12.33
2018-09-30T23:47:55.690Z,12.29
2018-09-30T23:50:23.771Z,12.22
2018-09-30T23:52:51.853Z,12.17
2018-09-30T23:55:19.940Z,12.13
2018-09-30T23:57:48.178Z,12.10
